Time;durP1;ratioP1;P1;durP2;ratioP2;P2;SDS_P1;SDS_P2;PMS_P1;PMS_P2;Temp;Humidity;BMP_temperature;BMP_pressure;BME280_temperature;BME280_humidity;BME280_pressure;Samples;Min_cycle;Max_cycle;Signal;HPM_P1;HPM_P2
2021/05/07 10:49:17;;;;;;;13.98;4.13;;;;;;;;;;5088046;27;20411;-62
2021/05/07 10:51:43;;;;;;;16.15;4.20;;;;;;;;;;5071755;28;20020;-61
2021/05/07 10:54:10;;;;;;;12.95;4.25;;;;;;;;;;5071888;28;20032;-58
2021/05/07 11:14:15;;;;;;;26.23;6.50;;;;;;;;;;5081659;27;20401;-68
2021/05/07 11:16:41;;;;;;;24.45;5.97;;;;;;;;;;5083132;28;20046;-67
2021/05/07 11:19:07;;;;;;;22.95;5.75;;;;;;;;;;5082468;28;20085;-65
2021/05/07 11:21:33;;;;;;;18.63;5.47;;;;;;;;;;5085852;28;20035;-65
2021/05/07 11:24:00;;;;;;;15.75;4.57;;;;;;;;;;5088054;28;20036;-65
2021/05/07 11:26:35;;;;;;;17.23;5.10;;;;;;;;;;5081141;28;20029;-66
2021/05/07 11:29:01;;;;;;;12.43;4.60;;;;;;;;;;5075536;28;20501;-66
2021/05/07 11:31:27;;;;;;;13.30;4.57;;;;;;;;;;5081083;28;20035;-65
2021/05/07 11:33:53;;;;;;;22.13;5.85;;;;;;;;;;5081416;28;20469;-75
2021/05/07 11:36:20;;;;;;;19.38;5.05;;;;;;;;;;5081626;28;20039;-68
2021/05/07 11:38:46;;;;;;;14.55;4.97;;;;;;;;;;5070620;28;20040;-66
2021/05/07 11:41:18;;;;;;;14.90;4.75;;;;;;;;;;5085293;28;20182;-66
2021/05/07 11:43:45;;;;;;;17.67;4.70;;;;;;;;;;5074865;28;20481;-67
2021/05/07 11:46:11;;;;;;;17.25;5.03;;;;;;;;;;5078906;28;20482;-67
2021/05/07 11:48:37;;;;;;;13.80;4.70;;;;;;;;;;5075193;28;20032;-68
2021/05/07 11:51:06;;;;;;;13.73;4.82;;;;;;;;;;5079348;28;20024;-75
2021/05/07 11:53:35;;;;;;;16.33;5.20;;;;;;;;;;5077990;28;20181;-75
2021/05/07 11:56:02;;;;;;;19.52;5.20;;;;;;;;;;5076984;28;20028;-74
2021/05/07 11:58:31;;;;;;;14.90;4.65;;;;;;;;;;5075014;28;20036;-74
2021/05/07 12:00:57;;;;;;;11.98;4.35;;;;;;;;;;5076051;28;20084;-76
2021/05/07 12:03:26;;;;;;;15.15;4.95;;;;;;;;;;5079318;28;20035;-75
2021/05/07 12:05:53;;;;;;;13.70;4.40;;;;;;;;;;5079194;28;20038;-68
2021/05/07 12:08:28;;;;;;;15.90;4.00;;;;;;;;;;5075821;28;20081;-68
2021/05/07 12:10:54;;;;;;;12.30;4.63;;;;;;;;;;5066138;28;20067;-67
2021/05/07 12:13:24;;;;;;;13.68;4.53;;;;;;;;;;5075888;28;20090;-67
2021/05/07 12:15:50;;;;;;;12.95;3.85;;;;;;;;;;5082030;28;20106;-67
2021/05/07 12:18:17;;;;;;;11.88;3.90;;;;;;;;;;5081977;28;20029;-67
2021/05/07 12:20:43;;;;;;;12.35;3.63;;;;;;;;;;5081463;28;20031;-69
2021/05/07 12:23:10;;;;;;;12.38;3.60;;;;;;;;;;5076586;28;20067;-68
2021/05/07 12:25:40;;;;;;;11.15;3.72;;;;;;;;;;5060777;28;20032;-68
2021/05/07 12:28:12;;;;;;;13.40;3.90;;;;;;;;;;5063608;28;20036;-71
2021/05/07 12:30:39;;;;;;;11.02;3.45;;;;;;;;;;5079500;28;20032;-71
2021/05/07 12:33:08;;;;;;;14.23;3.80;;;;;;;;;;5060323;28;20048;-68
2021/05/07 12:35:40;;;;;;;10.52;3.88;;;;;;;;;;5065260;28;20024;-70
2021/05/07 12:38:16;;;;;;;14.63;3.80;;;;;;;;;;5062377;28;20029;-71
2021/05/07 12:40:42;;;;;;;11.07;3.67;;;;;;;;;;5054718;28;20082;-67
2021/05/07 12:43:08;;;;;;;9.20;3.30;;;;;;;;;;5066400;28;20465;-72
2021/05/07 12:45:34;;;;;;;11.90;3.25;;;;;;;;;;5059991;28;20497;-70
2021/05/07 12:48:00;;;;;;;8.13;3.30;;;;;;;;;;5065941;28;20398;-69
2021/05/07 12:50:28;;;;;;;12.50;3.60;;;;;;;;;;5063107;28;20032;-65
2021/05/07 12:52:54;;;;;;;12.27;3.35;;;;;;;;;;5061460;28;20064;-65
2021/05/07 12:55:20;;;;;;;8.77;3.28;;;;;;;;;;5062385;28;20031;-73
2021/05/07 12:57:46;;;;;;;10.43;3.20;;;;;;;;;;5061682;28;20043;-72
2021/05/07 13:00:12;;;;;;;9.02;3.40;;;;;;;;;;5064021;28;20103;-70
2021/05/07 13:02:39;;;;;;;25.17;4.60;;;;;;;;;;5065247;28;20028;-73
2021/05/07 13:05:05;;;;;;;11.63;3.35;;;;;;;;;;5062031;28;20032;-72
2021/05/07 13:07:31;;;;;;;10.02;3.80;;;;;;;;;;5070147;28;20034;-73
2021/05/07 13:09:57;;;;;;;11.13;3.30;;;;;;;;;;5064699;28;20075;-68
2021/05/07 13:12:23;;;;;;;12.25;3.30;;;;;;;;;;5064586;28;20047;-67
2021/05/07 13:14:50;;;;;;;10.68;3.63;;;;;;;;;;5069065;28;20062;-65
2021/05/07 13:17:16;;;;;;;10.93;3.40;;;;;;;;;;5066976;28;20024;-66
2021/05/07 13:19:42;;;;;;;25.88;4.25;;;;;;;;;;5065360;28;20030;-67
2021/05/07 13:22:09;;;;;;;28.27;4.45;;;;;;;;;;5064766;28;20064;-65
2021/05/07 13:24:35;;;;;;;23.55;4.03;;;;;;;;;;5069548;28;20033;-67
2021/05/07 13:27:01;;;;;;;26.80;5.13;;;;;;;;;;5067333;28;20020;-69
2021/05/07 13:29:27;;;;;;;21.98;4.38;;;;;;;;;;5063512;28;20494;-66
2021/05/07 13:31:53;;;;;;;23.83;4.28;;;;;;;;;;5064638;28;20078;-68
2021/05/07 13:34:21;;;;;;;27.80;4.65;;;;;;;;;;5065895;28;20108;-67
2021/05/07 13:36:47;;;;;;;25.88;4.47;;;;;;;;;;5061572;28;20110;-66
2021/05/07 13:39:13;;;;;;;27.60;4.50;;;;;;;;;;5066432;28;20021;-68
2021/05/07 13:41:39;;;;;;;22.95;5.22;;;;;;;;;;5066810;28;20028;-67
2021/05/07 13:44:05;;;;;;;19.10;4.65;;;;;;;;;;5068522;28;20103;-68
2021/05/07 13:46:32;;;;;;;22.23;5.40;;;;;;;;;;5058366;28;20089;-67
2021/05/07 13:48:58;;;;;;;23.17;4.97;;;;;;;;;;5068583;28;20059;-67
2021/05/07 13:51:26;;;;;;;22.40;6.47;;;;;;;;;;5049176;28;20032;-66
2021/05/07 13:53:52;;;;;;;21.05;6.05;;;;;;;;;;5050243;28;20040;-66
2021/05/07 13:56:18;;;;;;;20.58;5.68;;;;;;;;;;5064324;28;20036;-68
2021/05/07 13:58:44;;;;;;;20.67;6.50;;;;;;;;;;5059275;28;20024;-67
2021/05/07 14:01:10;;;;;;;26.10;5.93;;;;;;;;;;5052195;28;20032;-65
2021/05/07 14:03:36;;;;;;;19.52;5.03;;;;;;;;;;5061880;28;20478;-67
2021/05/07 14:06:02;;;;;;;21.88;5.40;;;;;;;;;;5059152;28;20029;-64
2021/05/07 14:08:29;;;;;;;19.73;5.72;;;;;;;;;;5057949;28;21186;-66
2021/05/07 14:10:56;;;;;;;16.95;5.18;;;;;;;;;;5054116;28;20033;-67
2021/05/07 14:13:22;;;;;;;19.15;5.47;;;;;;;;;;5063885;28;20056;-72
2021/05/07 14:15:49;;;;;;;27.23;7.53;;;;;;;;;;5065320;28;20098;-69
2021/05/07 14:18:15;;;;;;;24.50;9.05;;;;;;;;;;5056721;28;20033;-69
2021/05/07 14:20:41;;;;;;;30.20;12.95;;;;;;;;;;5066898;28;20043;-69
2021/05/07 14:23:08;;;;;;;31.80;16.38;;;;;;;;;;5073744;28;20574;-71
2021/05/07 14:25:34;;;;;;;24.47;11.57;;;;;;;;;;5062077;28;20017;-72
2021/05/07 14:28:02;;;;;;;24.40;10.13;;;;;;;;;;5064551;28;20031;-72
2021/05/07 14:30:28;;;;;;;;;;;;;;;;;;5066326;28;20387;-72
2021/05/07 14:32:55;;;;;;;27.70;11.40;;;;;;;;;;5066344;28;19912;-69
2021/05/07 14:35:21;;;;;;;24.05;10.18;;;;;;;;;;5061814;28;20024;-68
2021/05/07 14:37:47;;;;;;;22.58;10.10;;;;;;;;;;5061919;28;20049;-68
2021/05/07 14:40:13;;;;;;;24.42;10.93;;;;;;;;;;5058796;28;20020;-69
2021/05/07 14:42:39;;;;;;;23.42;9.65;;;;;;;;;;5078374;28;20471;-69
2021/05/07 14:45:06;;;;;;;26.08;11.85;;;;;;;;;;5078217;28;20112;-69
2021/05/07 14:47:32;;;;;;;25.17;11.18;;;;;;;;;;5073596;28;20020;-68
2021/05/07 14:49:58;;;;;;;28.08;13.70;;;;;;;;;;5072399;28;20059;-69
2021/05/07 14:52:24;;;;;;;30.10;14.45;;;;;;;;;;5065344;28;20036;-69
2021/05/07 14:54:50;;;;;;;29.13;14.73;;;;;;;;;;5075843;28;20107;-69
2021/05/07 14:57:16;;;;;;;27.20;12.68;;;;;;;;;;5057953;28;20598;-69
2021/05/07 14:59:42;;;;;;;27.73;10.55;;;;;;;;;;5054634;28;20024;-69
2021/05/07 15:02:09;;;;;;;23.48;10.00;;;;;;;;;;5070294;28;20107;-69
2021/05/07 15:04:35;;;;;;;23.77;9.65;;;;;;;;;;5063586;28;20457;-69
2021/05/07 15:07:05;;;;;;;22.77;9.05;;;;;;;;;;5073024;28;20062;-69
2021/05/07 15:09:31;;;;;;;20.50;9.00;;;;;;;;;;5061926;28;20025;-69
2021/05/07 15:11:57;;;;;;;24.02;8.88;;;;;;;;;;5083055;28;20024;-68
2021/05/07 15:14:23;;;;;;;21.48;9.32;;;;;;;;;;5074785;28;20047;-69
2021/05/07 15:16:49;;;;;;;20.48;7.90;;;;;;;;;;5051051;28;20071;-68
2021/05/07 15:19:16;;;;;;;22.30;8.68;;;;;;;;;;5072947;28;20100;-68
2021/05/07 15:21:42;;;;;;;20.65;8.88;;;;;;;;;;5081962;28;20026;-69
2021/05/07 15:24:08;;;;;;;24.13;9.60;;;;;;;;;;5068501;28;20033;-69
2021/05/07 15:26:34;;;;;;;20.75;9.07;;;;;;;;;;5073349;28;20474;-68
2021/05/07 15:29:02;;;;;;;21.25;8.40;;;;;;;;;;5069910;28;20032;-69
2021/05/07 15:31:29;;;;;;;20.92;8.60;;;;;;;;;;5064594;28;20101;-69
2021/05/07 15:33:56;;;;;;;22.58;8.20;;;;;;;;;;5061810;28;20052;-68
2021/05/07 15:36:22;;;;;;;20.40;8.83;;;;;;;;;;5058515;28;20029;-68
2021/05/07 15:38:48;;;;;;;18.02;8.32;;;;;;;;;;5057769;28;20053;-68
2021/05/07 15:41:15;;;;;;;19.85;8.10;;;;;;;;;;5076884;28;20086;-68
2021/05/07 15:43:41;;;;;;;20.73;8.32;;;;;;;;;;5084897;28;20113;-69
2021/05/07 15:46:07;;;;;;;18.00;8.80;;;;;;;;;;5083647;28;20020;-68
2021/05/07 15:48:33;;;;;;;19.00;7.88;;;;;;;;;;5053881;28;20526;-68
2021/05/07 15:50:59;;;;;;;21.67;7.80;;;;;;;;;;5054909;28;20482;-68
2021/05/07 15:53:25;;;;;;;18.80;7.95;;;;;;;;;;5056547;28;20748;-69
2021/05/07 15:55:51;;;;;;;19.15;7.57;;;;;;;;;;5070000;28;20546;-69
2021/05/07 15:58:17;;;;;;;19.63;7.38;;;;;;;;;;5053616;28;20017;-69
2021/05/07 16:00:43;;;;;;;17.38;7.38;;;;;;;;;;5051976;28;20033;-70
2021/05/07 16:03:09;;;;;;;17.13;7.00;;;;;;;;;;5053465;28;20032;-69
2021/05/07 16:05:35;;;;;;;15.68;7.35;;;;;;;;;;5053957;28;20033;-70
2021/05/07 16:08:01;;;;;;;19.15;7.20;;;;;;;;;;5053005;28;20032;-69
2021/05/07 16:10:33;;;;;;;17.88;7.70;;;;;;;;;;5053834;28;20521;-70
2021/05/07 16:12:59;;;;;;;21.77;7.53;;;;;;;;;;5054024;28;20072;-70
2021/05/07 16:15:25;;;;;;;16.00;6.65;;;;;;;;;;5052910;28;20032;-69
2021/05/07 16:17:51;;;;;;;16.13;6.75;;;;;;;;;;5054133;28;20036;-70
2021/05/07 16:20:18;;;;;;;14.73;6.82;;;;;;;;;;5053474;28;20035;-70
2021/05/07 16:22:44;;;;;;;14.88;6.97;;;;;;;;;;5059092;28;20032;-73
2021/05/07 16:25:10;;;;;;;17.35;7.03;;;;;;;;;;5072676;28;20048;-72
2021/05/07 16:27:36;;;;;;;17.90;6.63;;;;;;;;;;5058924;28;20036;-72
2021/05/07 16:30:04;;;;;;;17.55;6.70;;;;;;;;;;5056447;28;20025;-71
2021/05/07 16:32:30;;;;;;;14.95;6.75;;;;;;;;;;5053369;28;20493;-72
2021/05/07 16:34:56;;;;;;;17.63;6.75;;;;;;;;;;5057107;28;20029;-71
2021/05/07 16:37:25;;;;;;;18.40;6.63;;;;;;;;;;5051983;28;20029;-71
2021/05/07 16:39:51;;;;;;;14.70;6.38;;;;;;;;;;5052685;28;20483;-72
2021/05/07 16:42:17;;;;;;;16.42;6.68;;;;;;;;;;5052641;28;20032;-72
2021/05/07 16:44:43;;;;;;;13.80;6.35;;;;;;;;;;5052370;28;20037;-72
2021/05/07 16:47:10;;;;;;;16.77;6.40;;;;;;;;;;5053722;28;20036;-72
2021/05/07 16:49:37;;;;;;;18.88;6.93;;;;;;;;;;5053002;28;20009;-72
2021/05/07 16:52:03;;;;;;;16.90;6.30;;;;;;;;;;5051347;28;20028;-72
2021/05/07 16:54:29;;;;;;;13.40;6.18;;;;;;;;;;5052465;28;20029;-72
2021/05/07 16:56:56;;;;;;;13.77;6.32;;;;;;;;;;5052741;28;20021;-72
2021/05/07 16:59:23;;;;;;;15.70;6.53;;;;;;;;;;5051693;28;20099;-73
2021/05/07 17:01:49;;;;;;;14.32;6.00;;;;;;;;;;5052523;28;20017;-73
2021/05/07 17:04:15;;;;;;;15.20;6.10;;;;;;;;;;5053063;28;20142;-72
2021/05/07 17:06:41;;;;;;;13.50;5.85;;;;;;;;;;5052117;28;20017;-72
2021/05/07 17:09:07;;;;;;;14.20;5.85;;;;;;;;;;5049905;28;20032;-72
2021/05/07 17:11:33;;;;;;;12.38;6.05;;;;;;;;;;5051808;28;20466;-72
2021/05/07 17:13:59;;;;;;;14.00;6.25;;;;;;;;;;5050875;28;20084;-72
2021/05/07 17:16:26;;;;;;;17.27;6.10;;;;;;;;;;5051717;28;20029;-72
2021/05/07 17:19:00;;;;;;;14.98;6.35;;;;;;;;;;5050655;28;20033;-72
2021/05/07 17:21:26;;;;;;;15.18;6.35;;;;;;;;;;5051669;28;20117;-72
2021/05/07 17:23:52;;;;;;;14.20;6.15;;;;;;;;;;5069048;28;20462;-72
2021/05/07 17:26:20;;;;;;;16.85;6.07;;;;;;;;;;5072180;28;20450;-72
2021/05/07 17:28:46;;;;;;;15.77;6.10;;;;;;;;;;5071156;28;20108;-72
2021/05/07 17:31:12;;;;;;;17.17;6.40;;;;;;;;;;5071460;28;20027;-71
2021/05/07 17:33:38;;;;;;;13.98;6.05;;;;;;;;;;5072036;28;20020;-70
2021/05/07 17:36:05;;;;;;;16.48;6.20;;;;;;;;;;5071779;28;20039;-69
2021/05/07 17:38:31;;;;;;;14.75;6.03;;;;;;;;;;5072196;28;20028;-71
2021/05/07 17:40:57;;;;;;;18.88;6.53;;;;;;;;;;5071324;28;20032;-69
2021/05/07 17:43:24;;;;;;;16.17;6.20;;;;;;;;;;5071377;28;20055;-69
2021/05/07 17:45:51;;;;;;;19.05;6.75;;;;;;;;;;5071619;28;20043;-69
2021/05/07 17:48:17;;;;;;;15.02;6.20;;;;;;;;;;5072857;28;20027;-69
2021/05/07 17:50:43;;;;;;;18.63;5.95;;;;;;;;;;5071689;28;20119;-69
2021/05/07 17:53:09;;;;;;;14.25;5.70;;;;;;;;;;5067323;28;20025;-69
2021/05/07 17:55:35;;;;;;;14.77;5.57;;;;;;;;;;5060633;28;20021;-69
2021/05/07 17:58:01;;;;;;;15.95;6.10;;;;;;;;;;5063832;28;20028;-69
2021/05/07 18:00:27;;;;;;;16.55;6.28;;;;;;;;;;5072332;28;20024;-69
2021/05/07 18:02:53;;;;;;;14.43;6.00;;;;;;;;;;5055243;28;20056;-69
2021/05/07 18:05:19;;;;;;;15.20;5.70;;;;;;;;;;5051710;28;20021;-69
2021/05/07 18:07:45;;;;;;;12.93;5.55;;;;;;;;;;5051680;28;20071;-69
2021/05/07 18:10:12;;;;;;;13.02;6.07;;;;;;;;;;5058907;28;20055;-69
2021/05/07 18:12:40;;;;;;;15.27;5.72;;;;;;;;;;5070363;28;20056;-70
2021/05/07 18:15:07;;;;;;;16.13;5.55;;;;;;;;;;5071959;28;20031;-69
2021/05/07 18:17:35;;;;;;;17.05;5.82;;;;;;;;;;5072080;28;20040;-69
2021/05/07 18:20:01;;;;;;;15.55;5.30;;;;;;;;;;5071221;28;20739;-69
2021/05/07 18:22:27;;;;;;;14.68;5.85;;;;;;;;;;5089408;28;20390;-69
2021/05/07 18:24:53;;;;;;;14.13;6.03;;;;;;;;;;5093014;28;20095;-69
2021/05/07 18:27:19;;;;;;;14.93;6.07;;;;;;;;;;5084410;28;20031;-69
2021/05/07 18:29:46;;;;;;;13.98;5.32;;;;;;;;;;5072132;28;20043;-69
2021/05/07 18:32:12;;;;;;;11.70;5.57;;;;;;;;;;5072117;28;20025;-69
2021/05/07 18:34:38;;;;;;;14.32;5.80;;;;;;;;;;5071602;28;20036;-69
2021/05/07 18:37:05;;;;;;;12.20;5.25;;;;;;;;;;5072380;28;20019;-70
2021/05/07 18:39:31;;;;;;;12.95;5.90;;;;;;;;;;5062174;28;20021;-70
2021/05/07 18:41:57;;;;;;;13.57;5.50;;;;;;;;;;5049016;28;20075;-69
2021/05/07 18:44:23;;;;;;;14.63;5.93;;;;;;;;;;5052355;28;20029;-69
2021/05/07 18:46:49;;;;;;;9.77;5.25;;;;;;;;;;5069866;28;20382;-70
2021/05/07 18:49:15;;;;;;;13.25;5.60;;;;;;;;;;5071447;28;20261;-70
2021/05/07 18:51:41;;;;;;;11.35;5.40;;;;;;;;;;5067057;28;20490;-69
2021/05/07 18:54:11;;;;;;;13.63;5.45;;;;;;;;;;5051617;28;20029;-69
2021/05/07 18:56:37;;;;;;;12.40;5.15;;;;;;;;;;5051583;28;20431;-69
2021/05/07 18:59:03;;;;;;;13.93;5.65;;;;;;;;;;5049961;28;20068;-69
2021/05/07 19:01:29;;;;;;;14.55;5.38;;;;;;;;;;5056536;28;20020;-69
2021/05/07 19:03:55;;;;;;;13.52;5.25;;;;;;;;;;5071040;28;20463;-69
2021/05/07 19:06:22;;;;;;;13.05;5.00;;;;;;;;;;5070112;28;20025;-69
2021/05/07 19:08:48;;;;;;;10.52;5.30;;;;;;;;;;5071572;28;20031;-69
2021/05/07 19:11:14;;;;;;;13.55;5.47;;;;;;;;;;5072058;28;20466;-70
2021/05/07 19:13:40;;;;;;;9.30;4.88;;;;;;;;;;5071876;28;20072;-70
2021/05/07 19:16:06;;;;;;;11.05;5.45;;;;;;;;;;5071721;28;20082;-69
2021/05/07 19:18:32;;;;;;;7.90;4.93;;;;;;;;;;5071901;28;20110;-69
2021/05/07 19:20:59;;;;;;;11.02;5.10;;;;;;;;;;5071804;28;20020;-69
2021/05/07 19:23:25;;;;;;;10.53;5.03;;;;;;;;;;5081930;28;20027;-69
2021/05/07 19:25:51;;;;;;;14.18;5.43;;;;;;;;;;5091959;28;20433;-70
2021/05/07 19:28:17;;;;;;;11.48;4.93;;;;;;;;;;5091917;28;20103;-71
2021/05/07 19:30:44;;;;;;;11.13;5.13;;;;;;;;;;5091503;28;20024;-69
2021/05/07 19:33:10;;;;;;;12.15;5.30;;;;;;;;;;5092004;28;20024;-69
2021/05/07 19:35:36;;;;;;;10.27;4.90;;;;;;;;;;5095157;28;20381;-69
2021/05/07 19:38:02;;;;;;;10.85;4.90;;;;;;;;;;5095875;28;20020;-69
2021/05/07 19:40:28;;;;;;;12.95;5.18;;;;;;;;;;5095833;28;20024;-69
2021/05/07 19:42:54;;;;;;;10.80;4.90;;;;;;;;;;5095731;28;20100;-69
2021/05/07 19:45:21;;;;;;;12.98;5.10;;;;;;;;;;5094562;28;20449;-69
2021/05/07 19:47:47;;;;;;;8.57;4.90;;;;;;;;;;5095822;28;20020;-70
2021/05/07 19:50:14;;;;;;;11.45;5.10;;;;;;;;;;5095647;28;20262;-69
2021/05/07 19:52:40;;;;;;;10.15;4.80;;;;;;;;;;5094140;28;20047;-69
2021/05/07 19:55:06;;;;;;;13.25;5.10;;;;;;;;;;5067292;28;20118;-69
2021/05/07 19:57:32;;;;;;;11.15;4.95;;;;;;;;;;5056852;28;20037;-70
2021/05/07 19:59:58;;;;;;;11.77;4.88;;;;;;;;;;5054267;28;20028;-69
2021/05/07 20:02:24;;;;;;;11.95;5.20;;;;;;;;;;5070379;28;20785;-70
2021/05/07 20:04:51;;;;;;;9.55;4.80;;;;;;;;;;5075141;28;20024;-69
2021/05/07 20:07:17;;;;;;;10.45;4.70;;;;;;;;;;5074883;28;20035;-69
2021/05/07 20:09:43;;;;;;;11.27;4.97;;;;;;;;;;5074880;28;20063;-69
2021/05/07 20:12:10;;;;;;;10.27;4.63;;;;;;;;;;5064737;28;20041;-69
2021/05/07 20:14:36;;;;;;;11.10;4.80;;;;;;;;;;5054723;28;20021;-69
2021/05/07 20:17:02;;;;;;;12.20;4.93;;;;;;;;;;5055057;28;20616;-70
2021/05/07 20:19:28;;;;;;;9.50;4.90;;;;;;;;;;5054995;28;20021;-69
2021/05/07 20:21:54;;;;;;;11.20;4.65;;;;;;;;;;5054780;28;20025;-69
2021/05/07 20:24:20;;;;;;;7.38;4.38;;;;;;;;;;5090888;28;20031;-69
2021/05/07 20:26:47;;;;;;;8.20;4.90;;;;;;;;;;5082528;28;20021;-69
2021/05/07 20:29:13;;;;;;;8.13;4.60;;;;;;;;;;5073437;28;20387;-71
2021/05/07 20:31:39;;;;;;;8.50;4.60;;;;;;;;;;5074777;28;20066;-70
2021/05/07 20:34:06;;;;;;;7.30;4.45;;;;;;;;;;5075019;28;20036;-70
2021/05/07 20:36:33;;;;;;;8.18;4.55;;;;;;;;;;5073334;28;20024;-70
2021/05/07 20:38:59;;;;;;;7.18;4.30;;;;;;;;;;5074608;28;20040;-70
2021/05/07 20:41:28;;;;;;;9.32;4.38;;;;;;;;;;5074675;28;20028;-69
2021/05/07 20:43:54;;;;;;;7.45;4.38;;;;;;;;;;5074052;28;20021;-69
2021/05/07 20:46:20;;;;;;;9.13;4.53;;;;;;;;;;5074305;28;20028;-69
2021/05/07 20:48:46;;;;;;;7.57;4.40;;;;;;;;;;5074617;28;20032;-69
2021/05/07 20:51:12;;;;;;;6.63;4.22;;;;;;;;;;5074171;28;20032;-70
2021/05/07 20:53:40;;;;;;;7.82;4.43;;;;;;;;;;5066234;28;20031;-69
2021/05/07 20:56:06;;;;;;;8.50;4.68;;;;;;;;;;5072757;28;20028;-70
2021/05/07 20:58:38;;;;;;;7.63;4.40;;;;;;;;;;5072664;28;20352;-71
2021/05/07 21:01:05;;;;;;;8.73;4.50;;;;;;;;;;5074453;28;20020;-70
2021/05/07 21:03:31;;;;;;;8.80;4.30;;;;;;;;;;5074569;28;20032;-71
2021/05/07 21:05:58;;;;;;;8.10;4.13;;;;;;;;;;5073960;28;20012;-70
2021/05/07 21:08:24;;;;;;;9.02;4.68;;;;;;;;;;5074328;28;20078;-70
2021/05/07 21:10:50;;;;;;;8.48;4.65;;;;;;;;;;5074261;28;20028;-70
2021/05/07 21:13:17;;;;;;;9.43;4.40;;;;;;;;;;5073374;28;20067;-69
2021/05/07 21:15:43;;;;;;;7.53;4.03;;;;;;;;;;5072815;28;20033;-70
2021/05/07 21:18:09;;;;;;;9.55;4.45;;;;;;;;;;5074062;28;20370;-69
2021/05/07 21:20:35;;;;;;;6.80;4.13;;;;;;;;;;5073616;28;20102;-69
2021/05/07 21:23:01;;;;;;;6.35;4.30;;;;;;;;;;5079627;28;20032;-70
2021/05/07 21:25:27;;;;;;;6.93;3.88;;;;;;;;;;5094186;28;20031;-69
2021/05/07 21:27:53;;;;;;;8.25;4.20;;;;;;;;;;5093805;28;20082;-70
2021/05/07 21:30:20;;;;;;;8.65;4.45;;;;;;;;;;5094332;28;20016;-70
2021/05/07 21:32:46;;;;;;;8.52;4.38;;;;;;;;;;5093890;28;20028;-69
2021/05/07 21:35:12;;;;;;;9.15;4.68;;;;;;;;;;5093793;28;20039;-71
2021/05/07 21:37:38;;;;;;;8.43;4.15;;;;;;;;;;5093946;28;20070;-71
2021/05/07 21:40:05;;;;;;;8.20;4.15;;;;;;;;;;5093959;28;20058;-69
2021/05/07 21:42:31;;;;;;;7.75;4.15;;;;;;;;;;5093428;28;20085;-69
2021/05/07 21:44:57;;;;;;;7.00;4.03;;;;;;;;;;5094097;28;20150;-71
2021/05/07 21:47:23;;;;;;;6.30;4.28;;;;;;;;;;5093814;28;20355;-70
2021/05/07 21:49:50;;;;;;;6.82;4.07;;;;;;;;;;5093489;28;20028;-70
2021/05/07 21:52:16;;;;;;;6.68;3.92;;;;;;;;;;5093641;28;20550;-69
2021/05/07 21:54:42;;;;;;;7.53;4.18;;;;;;;;;;5093454;28;20043;-69
2021/05/07 21:57:08;;;;;;;9.15;4.00;;;;;;;;;;5092747;28;20020;-70
2021/05/07 21:59:34;;;;;;;6.75;3.80;;;;;;;;;;5092650;28;20028;-70
2021/05/07 22:02:00;;;;;;;6.43;4.00;;;;;;;;;;5080912;28;20095;-70
2021/05/07 22:04:26;;;;;;;7.78;3.95;;;;;;;;;;5072678;28;20021;-70
2021/05/07 22:06:53;;;;;;;8.48;4.15;;;;;;;;;;5073408;28;20021;-70
2021/05/07 22:09:19;;;;;;;7.13;3.88;;;;;;;;;;5072955;28;20029;-70
2021/05/07 22:11:45;;;;;;;7.38;4.07;;;;;;;;;;5066303;28;20027;-70
2021/05/07 22:14:11;;;;;;;7.20;3.97;;;;;;;;;;5051993;28;20494;-70
2021/05/07 22:16:38;;;;;;;5.68;3.75;;;;;;;;;;5052771;28;20475;-71
2021/05/07 22:19:04;;;;;;;7.50;4.03;;;;;;;;;;5051022;28;20147;-70
2021/05/07 22:21:31;;;;;;;6.45;3.90;;;;;;;;;;5051343;28;20044;-70
2021/05/07 22:23:57;;;;;;;8.18;4.22;;;;;;;;;;5081931;28;20420;-70
2021/05/07 22:26:24;;;;;;;6.85;3.97;;;;;;;;;;5092369;28;20100;-70
2021/05/07 22:28:50;;;;;;;7.85;3.95;;;;;;;;;;5092960;28;20016;-69
2021/05/07 22:31:16;;;;;;;6.18;3.75;;;;;;;;;;5062071;28;20095;-70
2021/05/07 22:33:42;;;;;;;8.02;3.80;;;;;;;;;;5052455;28;20024;-69
2021/05/07 22:36:08;;;;;;;5.88;3.60;;;;;;;;;;5052733;28;20033;-70
2021/05/07 22:38:34;;;;;;;7.05;3.53;;;;;;;;;;5052543;28;20025;-69
2021/05/07 22:41:00;;;;;;;6.53;3.90;;;;;;;;;;5052414;28;20111;-69
2021/05/07 22:43:26;;;;;;;5.93;3.45;;;;;;;;;;5052515;28;20107;-70
2021/05/07 22:45:53;;;;;;;6.50;3.38;;;;;;;;;;5052702;28;20029;-69
2021/05/07 22:48:19;;;;;;;6.47;3.80;;;;;;;;;;5051540;28;20143;-69
2021/05/07 22:50:45;;;;;;;7.47;3.58;;;;;;;;;;5052331;28;20154;-69
2021/05/07 22:53:11;;;;;;;6.60;3.72;;;;;;;;;;5052474;28;20025;-70
2021/05/07 22:55:37;;;;;;;6.13;3.70;;;;;;;;;;5052533;28;20029;-69
2021/05/07 22:58:03;;;;;;;7.15;3.90;;;;;;;;;;5049505;28;20427;-70
2021/05/07 23:00:31;;;;;;;5.90;3.78;;;;;;;;;;5052648;28;20036;-70
2021/05/07 23:02:57;;;;;;;5.85;3.50;;;;;;;;;;5072372;28;20501;-69
2021/05/07 23:05:23;;;;;;;7.20;3.72;;;;;;;;;;5072263;28;20442;-69
2021/05/07 23:07:49;;;;;;;6.75;3.63;;;;;;;;;;5072462;28;20475;-70
2021/05/07 23:10:16;;;;;;;7.07;3.63;;;;;;;;;;5072355;28;20056;-69
2021/05/07 23:12:42;;;;;;;7.00;3.70;;;;;;;;;;5071772;28;20044;-70
2021/05/07 23:15:09;;;;;;;7.43;3.42;;;;;;;;;;5072302;28;20025;-69
2021/05/07 23:17:35;;;;;;;4.65;3.42;;;;;;;;;;5071153;28;20474;-69
2021/05/07 23:20:01;;;;;;;5.70;3.55;;;;;;;;;;5071891;28;20035;-69
2021/05/07 23:22:27;;;;;;;6.40;3.70;;;;;;;;;;5074485;28;20029;-70
2021/05/07 23:24:53;;;;;;;5.78;3.88;;;;;;;;;;5092308;28;20024;-69
2021/05/07 23:27:19;;;;;;;5.72;3.50;;;;;;;;;;5092196;28;20077;-71
2021/05/07 23:29:46;;;;;;;4.82;3.30;;;;;;;;;;5092742;28;20470;-70
2021/05/07 23:32:12;;;;;;;5.70;3.60;;;;;;;;;;5092705;28;20066;-70
2021/05/07 23:34:38;;;;;;;7.25;3.75;;;;;;;;;;5091898;28;20103;-70
2021/05/07 23:37:05;;;;;;;5.50;3.30;;;;;;;;;;5092438;28;20025;-69
2021/05/07 23:39:31;;;;;;;5.13;3.53;;;;;;;;;;5092442;28;20553;-69
2021/05/07 23:41:57;;;;;;;4.75;3.50;;;;;;;;;;5092017;28;20043;-69
2021/05/07 23:44:23;;;;;;;5.05;3.40;;;;;;;;;;5092359;28;20024;-69
2021/05/07 23:46:49;;;;;;;6.25;3.35;;;;;;;;;;5092587;28;20049;-69
2021/05/07 23:49:15;;;;;;;5.47;3.40;;;;;;;;;;5092276;28;20058;-69
2021/05/07 23:51:41;;;;;;;4.32;3.28;;;;;;;;;;5092399;28;20107;-69
2021/05/07 23:54:13;;;;;;;5.75;3.58;;;;;;;;;;5092392;28;20020;-70
2021/05/07 23:56:39;;;;;;;5.25;3.55;;;;;;;;;;5092200;28;20031;-70
2021/05/07 23:59:05;;;;;;;4.57;3.35;;;;;;;;;;5092461;28;20111;-69
